Time;durP1;ratioP1;P1;durP2;ratioP2;P2;SDS_P1;SDS_P2;PMS_P1;PMS_P2;Temp;Humidity;BMP_temperature;BMP_pressure;BME280_temperature;BME280_humidity;BME280_pressure;Samples;Min_cycle;Max_cycle;Signal;HPM_P1;HPM_P2
2022/05/07 00:01:55;;;;;;;6.83;4.20;;;;;;;12.22;67.00;102231.13;5074817;28;20036;-78
2022/05/07 00:04:21;;;;;;;8.07;4.30;;;;;;;12.22;66.99;102244.16;5075537;28;20190;-78
2022/05/07 00:06:46;;;;;;;7.03;4.33;;;;;;;12.19;67.42;102229.41;5074736;28;20039;-78
2022/05/07 00:09:11;;;;;;;7.00;4.20;;;;;;;12.17;67.19;102230.28;5075562;28;20056;-78
2022/05/07 00:11:37;;;;;;;6.83;4.20;;;;;;;12.14;67.18;102230.25;5074898;28;20036;-78
2022/05/07 00:14:02;;;;;;;7.23;4.37;;;;;;;12.13;67.50;102234.63;5074520;28;20025;-78
2022/05/07 00:19:11;;;;;;;7.75;4.43;;;;;;;12.05;67.38;102226.81;5074796;28;20094;-79
2022/05/07 00:21:36;;;;;;;8.20;4.83;;;;;;;12.05;67.47;102225.91;5074607;28;20058;-78
2022/05/07 00:24:02;;;;;;;7.90;4.77;;;;;;;12.04;67.72;102222.47;5074782;28;20035;-78
2022/05/07 00:26:28;;;;;;;8.68;4.80;;;;;;;12.02;67.71;102224.19;5074398;28;20020;-78
2022/05/07 00:28:54;;;;;;;7.67;4.53;;;;;;;12.00;67.73;102222.47;5074726;28;20491;-78
2022/05/07 00:31:25;;;;;;;6.03;3.90;;;;;;;11.99;68.18;102225.94;5074935;28;20024;-78
2022/05/07 00:33:51;;;;;;;6.78;4.00;;;;;;;11.98;67.73;102218.97;5073857;28;20025;-78
2022/05/07 00:36:16;;;;;;;8.00;4.60;;;;;;;11.97;67.92;102223.31;5074549;28;20039;-78
2022/05/07 00:38:44;;;;;;;9.17;4.40;;;;;;;11.95;68.03;102211.13;5074243;28;20028;-78
2022/05/07 00:41:10;;;;;;;6.70;4.13;;;;;;;11.93;68.05;102216.34;5073084;28;20032;-78
2022/05/07 00:43:36;;;;;;;7.60;4.30;;;;;;;11.90;68.23;102208.53;5074587;28;20103;-78
2022/05/07 00:46:01;;;;;;;8.38;4.18;;;;;;;11.88;68.25;102213.75;5075003;28;20025;-78
2022/05/07 00:48:28;;;;;;;6.63;4.10;;;;;;;11.85;68.34;102207.69;5074211;28;20021;-78
2022/05/07 00:53:38;;;;;;;7.10;4.05;;;;;;;11.81;68.39;102212.00;5074491;28;19966;-78
2022/05/07 00:56:04;;;;;;;6.97;4.10;;;;;;;11.78;68.35;102214.59;5073427;28;20027;-78
2022/05/07 00:58:29;;;;;;;7.70;4.30;;;;;;;11.79;68.49;102213.72;5074249;28;20021;-78
2022/05/07 01:00:55;;;;;;;6.67;4.13;;;;;;;11.75;68.74;102209.38;5074194;28;20123;-78
2022/05/07 01:03:20;;;;;;;5.77;4.00;;;;;;;11.71;68.67;102205.91;5073886;28;20031;-78
2022/05/07 01:05:45;;;;;;;6.37;3.97;;;;;;;11.68;68.70;102202.44;5074136;28;20031;-78
2022/05/07 01:08:12;;;;;;;5.87;3.70;;;;;;;11.64;69.03;102208.50;5074341;28;20033;-79
2022/05/07 01:10:38;;;;;;;5.75;3.80;;;;;;;11.59;68.93;102206.78;5073052;28;20468;-78
2022/05/07 01:13:04;;;;;;;6.15;3.75;;;;;;;11.58;69.10;102205.03;5074280;28;20067;-78
2022/05/07 01:15:30;;;;;;;6.53;3.80;;;;;;;11.52;69.11;102199.81;5073371;28;20068;-79
2022/05/07 01:17:55;;;;;;;5.37;3.67;;;;;;;11.53;69.30;102201.53;5073713;28;20037;-78
2022/05/07 01:20:20;;;;;;;6.40;3.93;;;;;;;11.51;69.12;102200.66;5073845;28;20035;-78
2022/05/07 01:22:46;;;;;;;5.50;3.83;;;;;;;11.51;69.52;102205.00;5072700;28;20025;-78
2022/05/07 01:25:12;;;;;;;5.53;3.87;;;;;;;11.50;69.24;102195.47;5073895;28;20393;-78
2022/05/07 01:27:37;;;;;;;5.07;3.50;;;;;;;11.45;69.69;102187.66;5073061;28;20033;-78
2022/05/07 01:30:03;;;;;;;5.40;3.67;;;;;;;11.41;69.46;102191.09;5073243;28;20024;-78
2022/05/07 01:32:29;;;;;;;5.97;3.90;;;;;;;11.42;69.57;102187.63;5073469;28;20528;-78
2022/05/07 01:34:54;;;;;;;7.40;3.97;;;;;;;11.39;69.61;102191.09;5073509;28;20026;-79
2022/05/07 01:37:23;;;;;;;6.57;3.80;;;;;;;11.36;69.76;102188.50;5072802;28;20017;-79
2022/05/07 01:39:48;;;;;;;7.43;4.25;;;;;;;11.34;69.74;102185.00;5072979;28;20556;-79
2022/05/07 01:42:13;;;;;;;6.50;4.17;;;;;;;11.33;69.99;102191.06;5073810;28;20095;-78
2022/05/07 01:44:39;;;;;;;6.53;3.77;;;;;;;11.31;70.00;102192.81;5072624;28;20496;-79
2022/05/07 01:49:49;;;;;;;6.10;3.95;;;;;;;11.27;70.15;102183.28;5073448;28;20074;-79
2022/05/07 01:52:15;;;;;;;6.00;3.85;;;;;;;11.24;70.08;102188.44;5071389;28;20039;-79
2022/05/07 01:54:40;;;;;;;7.87;4.00;;;;;;;11.22;70.18;102188.47;5073465;28;20021;-78
2022/05/07 01:57:05;;;;;;;5.73;3.70;;;;;;;11.21;70.04;102186.72;5073191;28;20123;-79
2022/05/07 01:59:31;;;;;;;6.57;4.27;;;;;;;11.20;70.24;102186.72;5072767;28;20032;-79
2022/05/07 02:01:56;;;;;;;5.93;4.00;;;;;;;11.20;70.02;102182.38;5072961;28;20076;-79
2022/05/07 02:04:22;;;;;;;7.83;4.63;;;;;;;11.20;70.48;102182.38;5073189;28;20024;-78
2022/05/07 02:06:47;;;;;;;6.57;3.90;;;;;;;11.20;70.62;102173.72;5072008;28;20089;-79
2022/05/07 02:09:12;;;;;;;6.37;4.10;;;;;;;11.17;70.39;102179.75;5073053;28;20081;-79
2022/05/07 02:11:37;;;;;;;7.93;4.50;;;;;;;11.19;70.37;102178.03;5072241;28;20027;-79
2022/05/07 02:14:03;;;;;;;6.80;4.10;;;;;;;11.16;70.53;102171.97;5072837;28;20036;-79
2022/05/07 02:16:28;;;;;;;6.77;4.20;;;;;;;11.15;70.76;102171.09;5072774;28;20106;-79
2022/05/07 02:18:53;;;;;;;6.87;4.10;;;;;;;11.15;70.77;102167.63;5072117;28;20029;-79
2022/05/07 02:21:18;;;;;;;7.57;4.50;;;;;;;11.13;70.37;102171.09;5073027;28;20380;-79
2022/05/07 02:23:44;;;;;;;6.77;4.27;;;;;;;11.15;70.80;102172.84;5072515;28;20411;-79
2022/05/07 02:26:12;;;;;;;8.17;4.13;;;;;;;11.11;70.80;102166.75;5072394;28;20035;-79
2022/05/07 02:28:37;;;;;;;6.50;4.20;;;;;;;11.10;71.00;102163.28;5072883;28;20174;-79
2022/05/07 02:31:02;;;;;;;7.40;4.53;;;;;;;11.10;70.75;102165.03;5073168;28;20091;-79
2022/05/07 02:33:31;;;;;;;6.90;4.13;;;;;;;11.09;70.98;102163.28;5072294;28;20033;-79
2022/05/07 02:35:56;;;;;;;6.53;4.13;;;;;;;11.07;70.90;102160.69;5072504;28;20397;-79
2022/05/07 02:38:21;;;;;;;6.17;3.97;;;;;;;11.08;70.78;102161.53;5072807;28;20047;-79
2022/05/07 02:43:30;;;;;;;7.25;4.30;;;;;;;11.06;71.04;102155.47;5072998;28;20039;-79
2022/05/07 02:45:55;;;;;;;6.27;4.00;;;;;;;11.06;71.34;102158.06;5072322;28;20024;-79
2022/05/07 02:48:22;;;;;;;6.07;3.87;;;;;;;11.04;71.29;102152.88;5072039;28;20085;-79
2022/05/07 02:50:47;;;;;;;6.68;4.05;;;;;;;11.02;71.33;102143.34;5072320;28;20029;-79
2022/05/07 02:53:12;;;;;;;7.33;4.30;;;;;;;11.02;71.55;102151.16;5072381;28;20158;-78
2022/05/07 02:55:38;;;;;;;5.90;4.20;;;;;;;10.99;71.41;102145.94;5071450;28;20111;-78
2022/05/07 02:58:03;;;;;;;7.47;4.37;;;;;;;10.99;71.51;102148.53;5072531;28;20028;-79
2022/05/07 03:00:31;;;;;;;6.73;4.23;;;;;;;10.97;71.62;102145.94;5072815;28;20029;-79
2022/05/07 03:02:56;;;;;;;5.43;3.78;;;;;;;10.95;71.83;102148.50;5072079;28;20032;-79
2022/05/07 03:05:22;;;;;;;6.23;4.00;;;;;;;10.93;71.73;102152.81;5076673;28;20510;-79
2022/05/07 03:07:47;;;;;;;7.10;4.17;;;;;;;10.92;71.99;102145.88;5076338;28;20028;-79
2022/05/07 03:10:12;;;;;;;6.33;3.93;;;;;;;10.93;71.79;102146.78;5075449;28;20025;-79
2022/05/07 03:12:37;;;;;;;5.90;4.00;;;;;;;10.91;71.90;102146.78;5076046;28;20025;-79
2022/05/07 03:15:03;;;;;;;6.27;4.20;;;;;;;10.92;71.76;102148.47;5075568;28;20048;-79
2022/05/07 03:17:28;;;;;;;6.47;4.30;;;;;;;10.93;71.88;102146.78;5076231;28;20082;-79
2022/05/07 03:19:54;;;;;;;5.40;3.80;;;;;;;10.94;71.86;102148.50;5076045;28;20028;-79
2022/05/07 03:22:20;;;;;;;5.00;3.63;;;;;;;10.93;71.89;102151.97;5075813;28;20020;-79
2022/05/07 03:24:45;;;;;;;7.03;4.15;;;;;;;10.92;72.21;102151.09;5076116;28;20055;-79
2022/05/07 03:27:11;;;;;;;7.40;4.17;;;;;;;10.92;71.97;102150.22;5076131;28;20489;-79
2022/05/07 03:29:36;;;;;;;8.93;4.60;;;;;;;10.93;71.82;102159.75;5075431;28;20052;-79
2022/05/07 03:32:01;;;;;;;7.43;4.57;;;;;;;10.92;71.91;102145.03;5075999;28;20419;-79
2022/05/07 03:34:29;;;;;;;7.03;4.50;;;;;;;10.91;72.17;102153.69;5075748;28;20024;-79
2022/05/07 03:36:54;;;;;;;5.32;3.90;;;;;;;10.90;71.96;102152.84;5075026;28;20024;-78
2022/05/07 03:39:20;;;;;;;5.47;3.80;;;;;;;10.88;72.22;102148.47;5075914;28;20036;-78
2022/05/07 03:41:45;;;;;;;5.80;4.10;;;;;;;10.90;72.08;102154.53;5075800;28;20029;-78
2022/05/07 03:44:10;;;;;;;5.80;3.80;;;;;;;10.87;72.32;102152.81;5075204;28;20060;-79
2022/05/07 03:46:35;;;;;;;6.67;4.10;;;;;;;10.87;72.25;102154.53;5075717;28;20609;-79
2022/05/07 03:49:01;;;;;;;8.97;4.10;;;;;;;10.87;72.31;102154.53;5075471;28;20020;-78
2022/05/07 03:51:26;;;;;;;5.73;3.90;;;;;;;10.87;72.29;102159.72;5075019;28;20364;-78
2022/05/07 03:53:52;;;;;;;6.97;4.27;;;;;;;10.85;72.22;102154.53;5075198;28;20066;-79
2022/05/07 03:56:17;;;;;;;5.77;4.00;;;;;;;10.88;72.23;102164.94;5075405;28;20029;-78
2022/05/07 03:58:45;;;;;;;7.50;4.37;;;;;;;10.89;72.12;102165.78;5074414;28;20021;-78
2022/05/07 04:01:10;;;;;;;7.15;4.40;;;;;;;10.89;72.33;102158.88;5075179;28;20029;-78
2022/05/07 04:03:36;;;;;;;7.47;4.53;;;;;;;10.90;72.33;102158.03;5075556;28;20149;-78
2022/05/07 04:06:01;;;;;;;6.20;4.10;;;;;;;10.92;72.34;102160.63;5074492;28;20024;-78
2022/05/07 04:08:27;;;;;;;8.23;4.67;;;;;;;10.93;72.25;102168.41;5075697;28;20077;-78
2022/05/07 04:10:52;;;;;;;7.53;4.20;;;;;;;10.91;72.48;102164.97;5075093;28;20067;-79
2022/05/07 04:13:18;;;;;;;7.73;4.30;;;;;;;10.92;72.48;102171.00;5074585;28;20031;-78
2022/05/07 04:15:44;;;;;;;6.27;4.20;;;;;;;10.90;72.54;102171.00;5073689;28;20531;-79
2022/05/07 04:18:10;;;;;;;6.47;4.00;;;;;;;10.89;72.50;102164.06;5075179;28;20032;-79
2022/05/07 04:20:36;;;;;;;7.30;4.20;;;;;;;10.90;72.64;102178.81;5074504;28;20473;-79
2022/05/07 04:23:05;;;;;;;7.83;4.37;;;;;;;10.89;72.74;102176.19;5075242;28;20021;-78
2022/05/07 04:25:31;;;;;;;6.05;3.90;;;;;;;10.88;72.87;102180.53;5074217;28;20074;-78
2022/05/07 04:27:56;;;;;;;5.83;3.90;;;;;;;10.89;72.93;102171.88;5074686;28;20584;-78
2022/05/07 04:30:23;;;;;;;6.23;3.97;;;;;;;10.90;72.95;102177.91;5075150;28;20419;-78
2022/05/07 04:32:48;;;;;;;6.47;4.00;;;;;;;10.89;72.87;102176.19;5074134;28;20032;-78
2022/05/07 04:35:13;;;;;;;6.60;4.13;;;;;;;10.90;73.29;102184.00;5074869;28;20094;-78
2022/05/07 04:37:39;;;;;;;6.00;4.13;;;;;;;10.90;73.13;102181.41;5074707;28;20036;-78
2022/05/07 04:40:05;;;;;;;7.93;4.40;;;;;;;10.91;73.05;102183.13;5074343;28;20103;-78
2022/05/07 04:42:30;;;;;;;6.27;4.13;;;;;;;10.93;73.16;102180.53;5074484;28;20396;-78
2022/05/07 04:44:55;;;;;;;7.13;4.27;;;;;;;10.95;73.25;102182.28;5074491;28;20060;-78
2022/05/07 04:47:21;;;;;;;6.93;4.13;;;;;;;10.95;73.09;102174.47;5074040;28;20028;-78
2022/05/07 04:49:46;;;;;;;6.90;4.10;;;;;;;10.99;73.32;102180.56;5074070;28;20037;-78
2022/05/07 04:52:11;;;;;;;7.10;4.40;;;;;;;11.02;73.26;102187.50;5074373;28;20060;-78
2022/05/07 04:54:38;;;;;;;6.80;4.33;;;;;;;11.05;73.37;102187.50;5073546;28;20042;-78
2022/05/07 04:57:06;;;;;;;5.65;3.85;;;;;;;11.08;73.27;102190.13;5074306;28;20020;-78
2022/05/07 04:59:32;;;;;;;5.80;3.80;;;;;;;11.11;73.69;102188.41;5074432;28;20456;-78
2022/05/07 05:01:57;;;;;;;5.93;3.80;;;;;;;11.14;73.29;102182.38;5073028;28;20068;-77
2022/05/07 05:04:22;;;;;;;6.60;4.00;;;;;;;11.17;73.43;102189.31;5074382;28;20029;-77
2022/05/07 05:06:47;;;;;;;6.37;4.13;;;;;;;11.20;73.46;102190.19;5074296;28;20024;-78
2022/05/07 05:09:13;;;;;;;5.37;3.63;;;;;;;11.24;73.54;102189.34;5073674;28;20100;-78
2022/05/07 05:11:38;;;;;;;7.83;4.20;;;;;;;11.29;73.53;102197.16;5074083;28;20021;-78
2022/05/07 05:16:48;;;;;;;6.40;3.92;;;;;;;11.41;73.41;102201.50;5073258;28;20404;-78
2022/05/07 05:19:13;;;;;;;6.93;4.20;;;;;;;11.44;73.37;102197.16;5074193;28;20021;-78
2022/05/07 05:21:38;;;;;;;7.63;3.73;;;;;;;11.51;73.30;102213.66;5072518;28;20028;-78
2022/05/07 05:24:04;;;;;;;7.27;4.20;;;;;;;11.59;73.41;102219.78;5073960;28;20086;-78
2022/05/07 05:26:29;;;;;;;5.97;4.03;;;;;;;11.66;73.25;102219.78;5073850;28;20432;-78
2022/05/07 05:28:54;;;;;;;6.93;4.37;;;;;;;11.71;73.44;102221.53;5072652;28;20016;-78
2022/05/07 05:31:20;;;;;;;6.80;4.00;;;;;;;11.77;73.61;102220.66;5073643;28;20028;-78
2022/05/07 05:33:45;;;;;;;5.70;3.90;;;;;;;11.82;73.24;102229.31;5073482;28;20021;-79
2022/05/07 05:36:10;;;;;;;6.63;4.10;;;;;;;11.88;73.09;102231.94;5072935;28;20027;-78
2022/05/07 05:38:35;;;;;;;7.23;4.00;;;;;;;11.94;73.06;102228.50;5073484;28;20499;-79
2022/05/07 05:41:01;;;;;;;7.43;4.20;;;;;;;11.98;73.26;102238.09;5073310;28;20024;-79
2022/05/07 05:43:26;;;;;;;6.47;4.00;;;;;;;12.03;73.33;102240.69;5072311;28;20036;-79
2022/05/07 05:45:51;;;;;;;7.23;4.27;;;;;;;12.05;73.00;102229.41;5072923;28;20469;-79
2022/05/07 05:48:17;;;;;;;6.03;4.10;;;;;;;12.11;73.04;102244.16;5073498;28;20032;-80
2022/05/07 05:50:42;;;;;;;9.07;4.60;;;;;;;12.12;73.07;102226.78;5072525;28;20032;-80
2022/05/07 05:53:07;;;;;;;6.90;4.27;;;;;;;12.22;73.28;102231.13;5073367;28;20029;-80
2022/05/07 05:55:33;;;;;;;7.03;4.20;;;;;;;12.28;73.06;102227.66;5073578;28;20097;-80
2022/05/07 05:57:59;;;;;;;6.20;3.90;;;;;;;12.35;72.95;102235.47;5072269;28;20028;-77
2022/05/07 06:00:24;;;;;;;7.03;4.10;;;;;;;12.43;72.96;102235.47;5073183;28;20024;-77
2022/05/07 06:02:50;;;;;;;6.63;4.10;;;;;;;12.52;72.84;102235.47;5073118;28;20045;-77
2022/05/07 06:05:17;;;;;;;6.63;4.07;;;;;;;12.61;72.88;102231.13;5072568;28;20032;-77
2022/05/07 06:07:42;;;;;;;;;;;;;;;12.73;73.15;102230.22;5073470;28;20017;-77
2022/05/07 06:10:10;;;;;;;6.87;4.27;;;;;;;12.79;73.61;102236.28;5072881;28;19917;-77
2022/05/07 06:12:36;;;;;;;4.63;3.42;;;;;;;12.86;73.37;102238.88;5072346;28;20033;-77
2022/05/07 06:15:05;;;;;;;6.80;4.30;;;;;;;12.94;73.95;102238.00;5072574;28;20079;-77
2022/05/07 06:17:31;;;;;;;6.88;4.03;;;;;;;13.03;72.77;102238.81;5073155;28;20086;-77
2022/05/07 06:19:56;;;;;;;5.67;3.60;;;;;;;13.13;73.11;102240.53;5072003;28;20024;-77
2022/05/07 06:22:21;;;;;;;5.00;3.30;;;;;;;13.20;72.77;102237.03;5073059;28;20119;-77
2022/05/07 06:27:33;;;;;;;6.65;3.72;;;;;;;13.38;72.17;102243.03;5073077;28;20048;-77
2022/05/07 06:30:06;;;;;;;6.15;3.70;;;;;;;13.47;72.65;102250.00;5072669;28;20104;-77
2022/05/07 06:32:33;;;;;;;9.55;4.70;;;;;;;13.54;72.43;102243.84;5072163;28;20025;-76
2022/05/07 06:34:59;;;;;;;8.45;4.72;;;;;;;13.68;71.96;102247.25;5072605;28;20027;-79
2022/05/07 06:37:24;;;;;;;7.67;4.40;;;;;;;14.22;72.19;102248.63;5072385;28;20036;-79
2022/05/07 06:39:50;;;;;;;8.10;4.80;;;;;;;15.28;71.05;102246.72;5071496;28;20059;-79
2022/05/07 06:42:18;;;;;;;8.20;4.70;;;;;;;16.52;69.04;102239.63;5073044;28;20032;-80
2022/05/07 06:44:43;;;;;;;9.65;5.30;;;;;;;17.85;66.35;102245.69;5072391;28;20392;-79
2022/05/07 06:47:12;;;;;;;7.47;4.50;;;;;;;18.95;65.18;102243.78;5072090;28;20032;-80
2022/05/07 06:49:37;;;;;;;7.50;3.97;;;;;;;20.02;63.25;102245.00;5071932;28;20047;-79
2022/05/07 06:52:03;;;;;;;8.50;4.50;;;;;;;20.87;54.80;102239.47;5072646;28;20021;-80
2022/05/07 06:54:29;;;;;;;17.27;8.25;;;;;;;21.18;53.81;102242.69;5071630;28;20067;-80
2022/05/07 06:56:54;;;;;;;16.30;8.20;;;;;;;21.19;52.12;102242.66;5072304;28;20125;-80
2022/05/07 06:59:20;;;;;;;16.93;8.50;;;;;;;21.13;52.42;102249.03;5072739;28;20033;-78
2022/05/07 07:01:46;;;;;;;15.57;8.02;;;;;;;20.74;54.56;102238.16;5071645;28;20389;-79
2022/05/07 07:04:11;;;;;;;10.97;6.20;;;;;;;20.55;54.48;102244.06;5072492;28;20047;-79
2022/05/07 07:06:36;;;;;;;10.37;5.67;;;;;;;20.36;55.59;102249.13;5072372;28;20036;-79
2022/05/07 07:09:05;;;;;;;13.30;6.60;;;;;;;20.06;54.49;102249.22;5071357;28;20032;-79
2022/05/07 07:11:31;;;;;;;10.82;5.82;;;;;;;19.55;56.79;102249.06;5072639;28;20124;-79
2022/05/07 07:13:56;;;;;;;13.25;6.93;;;;;;;19.16;55.33;102251.09;5072298;28;20094;-79
2022/05/07 07:16:22;;;;;;;14.00;6.77;;;;;;;18.72;56.87;102248.78;5071152;28;20443;-81
2022/05/07 07:18:47;;;;;;;8.33;4.80;;;;;;;18.44;58.30;102252.16;5072170;28;20025;-79
2022/05/07 07:21:12;;;;;;;14.23;7.37;;;;;;;18.13;58.40;102259.06;5070514;28;20028;-79
2022/05/07 07:23:38;;;;;;;20.87;12.10;;;;;;;17.73;58.05;102254.72;5071742;28;20028;-79
2022/05/07 07:26:04;;;;;;;20.43;11.40;;;;;;;17.37;59.29;102252.00;5072091;28;20024;-79
2022/05/07 07:28:32;;;;;;;19.30;10.95;;;;;;;17.23;60.26;102252.28;5071777;28;20082;-79
2022/05/07 07:31:01;;;;;;;15.15;8.27;;;;;;;17.19;60.84;102248.84;5072201;28;20028;-80
2022/05/07 07:33:26;;;;;;;19.77;10.50;;;;;;;17.13;59.89;102249.84;5072428;28;20426;-80
2022/05/07 07:35:51;;;;;;;17.73;9.00;;;;;;;17.06;61.44;102245.63;5071399;28;20077;-80
2022/05/07 07:38:17;;;;;;;16.00;8.50;;;;;;;17.16;60.11;102248.06;5072243;28;20500;-79
2022/05/07 07:40:44;;;;;;;20.30;11.20;;;;;;;17.13;59.84;102247.22;5072133;28;20035;-79
2022/05/07 07:43:10;;;;;;;16.52;8.45;;;;;;;17.17;61.10;102249.78;5071177;28;20036;-79
2022/05/07 07:48:20;;;;;;;10.52;5.47;;;;;;;17.49;61.50;102250.88;5072435;28;20032;-80
2022/05/07 07:50:48;;;;;;;13.33;6.13;;;;;;;17.66;58.38;102243.50;5074054;28;20033;-79
2022/05/07 07:53:14;;;;;;;12.80;6.60;;;;;;;17.68;59.30;102248.69;5075678;28;20070;-80
2022/05/07 07:55:39;;;;;;;11.67;5.83;;;;;;;17.73;59.92;102252.94;5075712;28;20377;-79
2022/05/07 07:58:06;;;;;;;7.90;4.63;;;;;;;17.83;60.02;102248.34;5074745;28;20476;-80
2022/05/07 08:00:33;;;;;;;7.60;4.38;;;;;;;17.93;60.00;102256.88;5075370;28;20081;-80
2022/05/07 08:03:00;;;;;;;7.78;4.25;;;;;;;18.04;59.70;102251.41;5075198;28;20020;-80
2022/05/07 08:05:35;;;;;;;7.90;4.18;;;;;;;18.12;60.00;102244.19;5074687;28;20032;-80
2022/05/07 08:13:46;;;;;;;7.10;4.05;;;;;;;18.79;59.56;102239.84;5075027;28;20408;-80
2022/05/07 08:16:13;;;;;;;9.70;4.72;;;;;;;18.93;57.98;102242.06;5075187;28;20131;-80
2022/05/07 08:18:41;;;;;;;5.78;3.92;;;;;;;19.01;58.66;102244.53;5074344;28;20429;-80
2022/05/07 08:21:08;;;;;;;4.57;3.10;;;;;;;19.04;58.63;102244.41;5073813;28;20442;-80
2022/05/07 08:23:33;;;;;;;6.85;4.07;;;;;;;19.04;58.62;102245.28;5075025;28;20028;-80
2022/05/07 08:25:59;;;;;;;5.83;3.60;;;;;;;19.07;59.16;102252.22;5073968;28;20499;-80
2022/05/07 08:28:24;;;;;;;5.03;3.10;;;;;;;19.12;58.88;102250.34;5075075;28;20020;-80
2022/05/07 08:30:53;;;;;;;5.32;3.22;;;;;;;19.16;58.95;102251.09;5074907;28;20029;-80
2022/05/07 08:33:19;;;;;;;4.10;2.80;;;;;;;19.20;58.88;102250.97;5074341;28;20028;-80
2022/05/07 08:35:44;;;;;;;4.53;2.90;;;;;;;19.23;59.10;102250.88;5074667;28;20425;-80
2022/05/07 08:38:10;;;;;;;5.63;3.50;;;;;;;19.27;58.76;102254.28;5074656;28;20047;-80
2022/05/07 08:40:40;;;;;;;9.33;5.07;;;;;;;19.26;56.80;102257.81;5073805;28;20060;-80
2022/05/07 08:43:08;;;;;;;8.00;4.45;;;;;;;19.31;57.29;102262.94;5075008;28;20029;-80
2022/05/07 08:45:35;;;;;;;10.30;5.50;;;;;;;19.44;54.58;102259.06;5074080;28;20028;-80
2022/05/07 08:48:01;;;;;;;15.15;7.70;;;;;;;19.50;56.58;102256.22;5074401;28;20025;-80
2022/05/07 08:50:26;;;;;;;17.80;8.53;;;;;;;19.60;53.50;102252.38;5074833;28;20031;-80
2022/05/07 08:52:55;;;;;;;18.70;10.23;;;;;;;19.60;56.33;102256.81;5073475;28;20086;-80
2022/05/07 08:55:21;;;;;;;13.90;7.18;;;;;;;19.80;56.79;102245.66;5074004;28;20024;-80
2022/05/07 08:57:49;;;;;;;10.30;5.43;;;;;;;20.05;55.87;102258.03;5074065;28;20465;-80
2022/05/07 09:00:17;;;;;;;7.53;4.47;;;;;;;20.32;55.65;102252.78;5073645;28;20032;-80
2022/05/07 09:02:48;;;;;;;8.80;4.80;;;;;;;20.53;54.63;102253.81;5073407;28;20024;-80
2022/05/07 09:05:16;;;;;;;14.80;7.05;;;;;;;20.65;51.82;102250.75;5074282;28;20025;-80
2022/05/07 09:07:52;;;;;;;15.43;7.68;;;;;;;20.63;53.91;102249.94;5073276;28;20529;-82
2022/05/07 09:10:19;;;;;;;10.30;5.50;;;;;;;20.74;54.74;102238.16;5074370;28;20373;-79
2022/05/07 09:13:00;;;;;;;8.38;4.53;;;;;;;20.92;54.10;102245.41;5073994;28;20024;-80
2022/05/07 09:15:28;;;;;;;15.57;7.70;;;;;;;21.04;48.11;102245.88;5073045;28;20128;-81
2022/05/07 09:17:53;;;;;;;17.40;9.15;;;;;;;20.99;49.22;102246.03;5073430;28;20072;-81
2022/05/07 09:20:21;;;;;;;19.20;9.70;;;;;;;21.02;48.30;102245.94;5073512;28;20067;-81
2022/05/07 09:22:55;;;;;;;15.90;7.68;;;;;;;21.08;51.86;102239.56;5072858;28;20512;-81
2022/05/07 09:25:25;;;;;;;11.32;5.90;;;;;;;21.19;52.59;102239.16;5074035;28;20035;-81
2022/05/07 09:27:52;;;;;;;15.88;8.20;;;;;;;21.30;51.18;102242.25;5072929;28;20056;-81
2022/05/07 09:30:25;;;;;;;19.50;10.02;;;;;;;21.21;50.50;102237.31;5073859;28;20146;-81
2022/05/07 09:32:52;;;;;;;12.70;6.55;;;;;;;21.29;51.75;102232.59;5073381;28;20473;-81
2022/05/07 09:38:10;;;;;;;8.52;4.55;;;;;;;21.59;49.15;102238.50;5073570;28;20046;-81
2022/05/07 09:40:41;;;;;;;19.50;10.50;;;;;;;21.54;48.10;102247.50;5073778;28;20115;-81
2022/05/07 09:43:08;;;;;;;17.10;8.85;;;;;;;21.43;50.23;102247.94;5072836;28;20029;-81
2022/05/07 09:45:35;;;;;;;13.48;6.60;;;;;;;21.55;50.08;102242.16;5073928;28;20389;-81
2022/05/07 09:48:00;;;;;;;;;;;;;;;21.66;51.03;102241.75;5073410;28;20434;-81
2022/05/07 09:58:33;;;;;;;14.73;7.80;;;;;;;21.62;49.06;102248.06;5073217;28;20047;-81
2022/05/07 10:01:20;;;;;;;20.63;10.43;;;;;;;21.65;47.70;102253.25;5073170;28;20017;-81
2022/05/07 10:04:09;;;;;;;13.55;6.72;;;;;;;21.81;49.15;102250.00;5072243;28;20021;-82
2022/05/07 10:07:02;;;;;;;7.30;4.13;;;;;;;22.09;48.30;102249.72;5072596;28;20032;-82
2022/05/07 10:09:40;;;;;;;7.75;4.10;;;;;;;22.30;45.85;102244.44;5072909;28;20032;-81
2022/05/07 10:12:07;;;;;;;12.52;5.80;;;;;;;22.28;42.98;102241.88;5071780;28;20077;-81
2022/05/07 10:14:32;;;;;;;8.25;4.40;;;;;;;22.33;47.70;102239.03;5072155;28;20480;-81
2022/05/07 10:17:00;;;;;;;8.20;3.80;;;;;;;22.54;46.98;102236.41;5072005;28;20028;-81
2022/05/07 10:19:42;;;;;;;15.35;6.82;;;;;;;22.62;44.58;102236.91;5072937;28;20411;-81
2022/05/07 10:22:17;;;;;;;16.25;7.60;;;;;;;22.61;41.73;102232.56;5072920;28;20020;-82
2022/05/07 10:25:02;;;;;;;14.35;6.65;;;;;;;22.46;42.18;102231.44;5071988;28;20082;-81
2022/05/07 10:27:41;;;;;;;8.98;5.07;;;;;;;22.43;43.54;102224.50;5072670;28;20383;-82
2022/05/07 10:30:14;;;;;;;10.30;4.95;;;;;;;22.65;40.24;102232.34;5072835;28;20020;-81
2022/05/07 10:33:02;;;;;;;15.23;7.20;;;;;;;22.50;42.48;102228.59;5071758;28;20025;-81
2022/05/07 10:35:55;;;;;;;12.77;6.28;;;;;;;22.57;43.28;102220.41;5072656;28;20115;-80
2022/05/07 10:38:27;;;;;;;7.88;4.57;;;;;;;22.75;40.52;102227.50;5071816;28;20374;-81
2022/05/07 10:41:01;;;;;;;8.80;4.32;;;;;;;22.90;41.12;102225.94;5072519;28;20024;-81
2022/05/07 10:43:43;;;;;;;5.93;3.50;;;;;;;23.17;40.43;102224.75;5072651;28;20383;-80
2022/05/07 10:46:14;;;;;;;16.60;6.72;;;;;;;23.03;40.42;102215.66;5071761;28;20032;-81
2022/05/07 10:48:46;;;;;;;11.13;5.35;;;;;;;23.10;43.87;102224.16;5072276;28;20039;-81
2022/05/07 10:51:19;;;;;;;7.80;3.85;;;;;;;23.41;43.77;102228.06;5069895;28;20098;-80
2022/05/07 10:53:45;;;;;;;6.85;3.78;;;;;;;23.70;41.94;102218.69;5071632;28;20025;-80
2022/05/07 10:56:20;;;;;;;9.52;4.82;;;;;;;23.91;41.96;102222.06;5072193;28;20045;-80
2022/05/07 10:58:50;;;;;;;5.63;3.53;;;;;;;24.10;40.67;102225.63;5072462;28;20037;-81
2022/05/07 11:01:18;;;;;;;13.38;6.32;;;;;;;24.03;40.65;102220.63;5066233;28;20024;-80
2022/05/07 11:03:47;;;;;;;12.45;5.72;;;;;;;23.93;40.67;102213.19;5063372;28;20473;-80
2022/05/07 11:06:28;;;;;;;9.73;4.75;;;;;;;23.99;41.56;102220.84;5076410;28;20035;-80
2022/05/07 11:09:25;;;;;;;8.40;4.20;;;;;;;23.84;41.47;102210.06;5072193;28;20501;-81
2022/05/07 11:11:57;;;;;;;11.95;5.57;;;;;;;23.53;38.60;102216.84;5072329;28;20050;-81
2022/05/07 11:14:28;;;;;;;12.32;5.57;;;;;;;23.43;37.00;102218.22;5071208;28;20050;-80
2022/05/07 11:16:57;;;;;;;7.18;4.28;;;;;;;23.64;41.87;102219.00;5071013;28;20021;-80
2022/05/07 11:19:28;;;;;;;5.32;3.40;;;;;;;24.08;42.56;102216.88;5070866;28;20059;-80
2022/05/07 11:21:54;;;;;;;9.52;5.07;;;;;;;24.34;39.33;102207.56;5070727;28;20086;-81
2022/05/07 11:24:20;;;;;;;10.90;5.25;;;;;;;24.39;40.12;102223.25;5072269;28;20020;-81
2022/05/07 11:27:02;;;;;;;10.23;4.97;;;;;;;24.18;39.65;102221.66;5076127;28;20024;-81
2022/05/07 11:29:28;;;;;;;12.77;5.72;;;;;;;23.88;39.95;102216.91;5075549;28;20035;-81
2022/05/07 11:32:03;;;;;;;5.18;3.33;;;;;;;23.87;41.55;102215.19;5075749;28;20025;-81
2022/05/07 11:34:33;;;;;;;5.28;3.25;;;;;;;24.09;39.69;102210.63;5075232;28;20028;-80
2022/05/07 11:37:15;;;;;;;9.90;4.80;;;;;;;24.23;39.23;102210.78;5075645;28;20079;-80
2022/05/07 11:39:51;;;;;;;5.13;3.30;;;;;;;24.26;40.67;102207.13;5075727;28;20044;-80
2022/05/07 11:42:46;;;;;;;7.55;4.03;;;;;;;24.15;38.69;102202.38;5075074;28;20108;-80
2022/05/07 11:45:33;;;;;;;9.25;4.40;;;;;;;23.84;41.30;102204.75;5076083;28;20024;-80
2022/05/07 11:47:59;;;;;;;13.65;6.10;;;;;;;23.44;40.48;102204.06;5075637;28;20480;-80
2022/05/07 11:50:30;;;;;;;14.23;5.88;;;;;;;23.09;41.87;102202.13;5074923;28;20102;-80
2022/05/07 11:52:57;;;;;;;9.35;4.63;;;;;;;22.97;41.69;102197.41;5075709;28;20033;-80
2022/05/07 11:55:24;;;;;;;10.23;5.03;;;;;;;22.82;41.42;102199.81;5075294;28;20048;-81
2022/05/07 11:57:49;;;;;;;12.30;5.85;;;;;;;22.71;40.99;102195.97;5075419;28;20421;-80
2022/05/07 12:00:39;;;;;;;10.77;4.97;;;;;;;22.74;39.89;102194.03;5075996;28;20066;-80
2022/05/07 12:03:05;;;;;;;11.55;5.55;;;;;;;22.71;40.47;102199.47;5055019;28;20513;-80